sensor_id;sensor_type;location;lat;lon;timestamp;P1;durP1;ratioP1;P2;durP2;ratioP2
74945;SDS011;63509;45.250;38.102;2023-04-15T00:01:27;7.95;;;4.10;;
74945;SDS011;63509;45.250;38.102;2023-04-15T00:03:53;5.15;;;2.90;;
74945;SDS011;63509;45.250;38.102;2023-04-15T00:06:20;8.82;;;3.63;;
74945;SDS011;63509;45.250;38.102;2023-04-15T00:08:47;11.05;;;3.60;;
74945;SDS011;63509;45.250;38.102;2023-04-15T00:11:13;7.88;;;3.10;;
74945;SDS011;63509;45.250;38.102;2023-04-15T00:13:40;10.13;;;3.22;;
74945;SDS011;63509;45.250;38.102;2023-04-15T00:16:07;12.35;;;2.90;;
74945;SDS011;63509;45.250;38.102;2023-04-15T00:18:33;5.88;;;2.97;;
74945;SDS011;63509;45.250;38.102;2023-04-15T00:21:00;6.85;;;3.17;;
74945;SDS011;63509;45.250;38.102;2023-04-15T00:23:26;7.60;;;2.92;;
74945;SDS011;63509;45.250;38.102;2023-04-15T00:25:52;10.80;;;3.92;;
74945;SDS011;63509;45.250;38.102;2023-04-15T00:28:19;8.27;;;3.15;;
74945;SDS011;63509;45.250;38.102;2023-04-15T00:30:45;11.95;;;2.35;;
74945;SDS011;63509;45.250;38.102;2023-04-15T00:33:12;10.80;;;3.17;;
74945;SDS011;63509;45.250;38.102;2023-04-15T00:35:38;8.52;;;2.75;;
74945;SDS011;63509;45.250;38.102;2023-04-15T00:38:05;4.88;;;2.60;;
74945;SDS011;63509;45.250;38.102;2023-04-15T00:40:32;5.70;;;3.10;;
74945;SDS011;63509;45.250;38.102;2023-04-15T00:42:59;12.00;;;3.83;;
74945;SDS011;63509;45.250;38.102;2023-04-15T00:45:25;4.20;;;2.67;;
74945;SDS011;63509;45.250;38.102;2023-04-15T00:47:53;10.85;;;2.88;;
74945;SDS011;63509;45.250;38.102;2023-04-15T00:50:20;6.68;;;2.85;;
74945;SDS011;63509;45.250;38.102;2023-04-15T00:52:46;12.35;;;3.63;;
74945;SDS011;63509;45.250;38.102;2023-04-15T00:55:13;7.93;;;3.35;;
74945;SDS011;63509;45.250;38.102;2023-04-15T00:57:40;6.40;;;3.08;;
74945;SDS011;63509;45.250;38.102;2023-04-15T01:00:06;7.03;;;2.75;;
74945;SDS011;63509;45.250;38.102;2023-04-15T01:02:34;10.40;;;4.03;;
74945;SDS011;63509;45.250;38.102;2023-04-15T01:05:01;10.35;;;3.47;;
74945;SDS011;63509;45.250;38.102;2023-04-15T01:07:32;9.45;;;2.85;;
74945;SDS011;63509;45.250;38.102;2023-04-15T01:09:59;16.25;;;3.58;;
74945;SDS011;63509;45.250;38.102;2023-04-15T01:12:25;13.45;;;3.47;;
74945;SDS011;63509;45.250;38.102;2023-04-15T01:14:52;11.25;;;3.10;;
74945;SDS011;63509;45.250;38.102;2023-04-15T01:17:19;7.05;;;3.00;;
74945;SDS011;63509;45.250;38.102;2023-04-15T01:19:45;8.23;;;2.97;;
74945;SDS011;63509;45.250;38.102;2023-04-15T01:22:12;6.70;;;2.83;;
74945;SDS011;63509;45.250;38.102;2023-04-15T01:24:38;9.23;;;3.15;;
74945;SDS011;63509;45.250;38.102;2023-04-15T01:27:04;5.97;;;2.85;;
74945;SDS011;63509;45.250;38.102;2023-04-15T01:29:31;9.55;;;2.85;;
74945;SDS011;63509;45.250;38.102;2023-04-15T01:31:57;4.95;;;2.85;;
74945;SDS011;63509;45.250;38.102;2023-04-15T01:34:25;11.60;;;3.30;;
74945;SDS011;63509;45.250;38.102;2023-04-15T01:36:52;6.60;;;3.33;;
74945;SDS011;63509;45.250;38.102;2023-04-15T01:39:21;5.60;;;2.78;;
74945;SDS011;63509;45.250;38.102;2023-04-15T01:41:48;7.68;;;2.88;;
74945;SDS011;63509;45.250;38.102;2023-04-15T01:44:14;7.40;;;2.85;;
74945;SDS011;63509;45.250;38.102;2023-04-15T01:46:41;7.05;;;3.35;;
74945;SDS011;63509;45.250;38.102;2023-04-15T01:49:07;8.60;;;3.15;;
74945;SDS011;63509;45.250;38.102;2023-04-15T01:51:34;10.43;;;3.30;;
74945;SDS011;63509;45.250;38.102;2023-04-15T01:54:00;10.75;;;3.33;;
74945;SDS011;63509;45.250;38.102;2023-04-15T01:56:26;7.43;;;3.65;;
74945;SDS011;63509;45.250;38.102;2023-04-15T01:58:52;8.93;;;3.67;;
74945;SDS011;63509;45.250;38.102;2023-04-15T02:01:18;8.50;;;3.40;;
74945;SDS011;63509;45.250;38.102;2023-04-15T02:03:45;11.45;;;4.47;;
74945;SDS011;63509;45.250;38.102;2023-04-15T02:06:14;7.30;;;3.92;;
74945;SDS011;63509;45.250;38.102;2023-04-15T02:08:40;12.07;;;3.95;;
74945;SDS011;63509;45.250;38.102;2023-04-15T02:11:06;9.88;;;3.47;;
74945;SDS011;63509;45.250;38.102;2023-04-15T02:13:32;10.13;;;3.33;;
74945;SDS011;63509;45.250;38.102;2023-04-15T02:15:58;8.85;;;4.32;;
74945;SDS011;63509;45.250;38.102;2023-04-15T02:18:25;13.68;;;4.07;;
74945;SDS011;63509;45.250;38.102;2023-04-15T02:20:51;11.05;;;4.03;;
74945;SDS011;63509;45.250;38.102;2023-04-15T02:23:17;10.93;;;3.90;;
74945;SDS011;63509;45.250;38.102;2023-04-15T02:25:43;11.15;;;4.65;;
74945;SDS011;63509;45.250;38.102;2023-04-15T02:28:10;9.10;;;3.28;;
74945;SDS011;63509;45.250;38.102;2023-04-15T02:30:36;11.32;;;3.80;;
74945;SDS011;63509;45.250;38.102;2023-04-15T02:33:02;7.25;;;3.63;;
74945;SDS011;63509;45.250;38.102;2023-04-15T02:35:29;6.25;;;3.38;;
74945;SDS011;63509;45.250;38.102;2023-04-15T02:37:56;7.22;;;3.65;;
74945;SDS011;63509;45.250;38.102;2023-04-15T02:40:22;8.00;;;4.22;;
74945;SDS011;63509;45.250;38.102;2023-04-15T02:42:49;7.10;;;3.75;;
74945;SDS011;63509;45.250;38.102;2023-04-15T02:45:16;13.52;;;4.55;;
74945;SDS011;63509;45.250;38.102;2023-04-15T02:47:44;8.73;;;4.22;;
74945;SDS011;63509;45.250;38.102;2023-04-15T02:50:12;8.10;;;3.85;;
74945;SDS011;63509;45.250;38.102;2023-04-15T02:52:41;7.72;;;4.30;;
74945;SDS011;63509;45.250;38.102;2023-04-15T02:55:09;12.38;;;4.40;;
74945;SDS011;63509;45.250;38.102;2023-04-15T02:57:36;5.55;;;3.30;;
74945;SDS011;63509;45.250;38.102;2023-04-15T03:00:06;9.40;;;4.63;;
74945;SDS011;63509;45.250;38.102;2023-04-15T03:02:38;10.50;;;4.13;;
74945;SDS011;63509;45.250;38.102;2023-04-15T03:05:09;10.02;;;4.70;;
74945;SDS011;63509;45.250;38.102;2023-04-15T03:07:38;8.30;;;4.22;;
74945;SDS011;63509;45.250;38.102;2023-04-15T03:10:07;8.27;;;4.68;;
74945;SDS011;63509;45.250;38.102;2023-04-15T03:12:33;10.45;;;4.90;;
74945;SDS011;63509;45.250;38.102;2023-04-15T03:15:00;12.52;;;5.18;;
74945;SDS011;63509;45.250;38.102;2023-04-15T03:17:33;9.80;;;4.28;;
74945;SDS011;63509;45.250;38.102;2023-04-15T03:20:00;8.32;;;4.63;;
74945;SDS011;63509;45.250;38.102;2023-04-15T03:22:28;11.07;;;5.05;;
74945;SDS011;63509;45.250;38.102;2023-04-15T03:24:54;10.18;;;5.60;;
74945;SDS011;63509;45.250;38.102;2023-04-15T03:27:20;24.95;;;6.53;;
74945;SDS011;63509;45.250;38.102;2023-04-15T03:29:46;11.13;;;5.57;;
74945;SDS011;63509;45.250;38.102;2023-04-15T03:32:14;9.52;;;5.60;;
74945;SDS011;63509;45.250;38.102;2023-04-15T03:34:41;13.60;;;5.72;;
74945;SDS011;63509;45.250;38.102;2023-04-15T03:37:07;12.35;;;5.05;;
74945;SDS011;63509;45.250;38.102;2023-04-15T03:39:33;11.23;;;5.18;;
74945;SDS011;63509;45.250;38.102;2023-04-15T03:42:00;10.38;;;5.93;;
74945;SDS011;63509;45.250;38.102;2023-04-15T03:44:26;12.30;;;6.43;;
74945;SDS011;63509;45.250;38.102;2023-04-15T03:46:52;22.52;;;6.60;;
74945;SDS011;63509;45.250;38.102;2023-04-15T03:49:19;16.08;;;7.00;;
74945;SDS011;63509;45.250;38.102;2023-04-15T03:51:47;24.85;;;7.43;;
74945;SDS011;63509;45.250;38.102;2023-04-15T03:54:13;15.13;;;6.55;;
74945;SDS011;63509;45.250;38.102;2023-04-15T03:56:39;18.67;;;7.20;;
74945;SDS011;63509;45.250;38.102;2023-04-15T03:59:06;20.15;;;8.20;;
74945;SDS011;63509;45.250;38.102;2023-04-15T04:01:32;25.13;;;8.52;;
74945;SDS011;63509;45.250;38.102;2023-04-15T04:03:58;22.20;;;8.73;;
74945;SDS011;63509;45.250;38.102;2023-04-15T04:06:24;25.13;;;10.50;;
74945;SDS011;63509;45.250;38.102;2023-04-15T04:08:51;18.45;;;8.70;;
74945;SDS011;63509;45.250;38.102;2023-04-15T04:11:17;22.48;;;8.60;;
74945;SDS011;63509;45.250;38.102;2023-04-15T04:13:43;22.35;;;9.23;;
74945;SDS011;63509;45.250;38.102;2023-04-15T04:16:09;24.52;;;9.38;;
74945;SDS011;63509;45.250;38.102;2023-04-15T04:18:35;17.45;;;8.80;;
74945;SDS011;63509;45.250;38.102;2023-04-15T04:21:01;20.27;;;9.90;;
74945;SDS011;63509;45.250;38.102;2023-04-15T04:23:28;17.15;;;8.80;;
74945;SDS011;63509;45.250;38.102;2023-04-15T04:25:54;15.90;;;7.57;;
74945;SDS011;63509;45.250;38.102;2023-04-15T04:28:20;21.60;;;8.63;;
74945;SDS011;63509;45.250;38.102;2023-04-15T04:30:46;22.70;;;8.68;;
74945;SDS011;63509;45.250;38.102;2023-04-15T04:33:12;14.57;;;7.32;;
74945;SDS011;63509;45.250;38.102;2023-04-15T04:35:38;16.88;;;9.32;;
74945;SDS011;63509;45.250;38.102;2023-04-15T04:38:06;31.67;;;10.85;;
74945;SDS011;63509;45.250;38.102;2023-04-15T04:40:32;29.48;;;13.98;;
74945;SDS011;63509;45.250;38.102;2023-04-15T04:42:58;53.88;;;17.63;;
74945;SDS011;63509;45.250;38.102;2023-04-15T04:45:24;61.67;;;24.92;;
74945;SDS011;63509;45.250;38.102;2023-04-15T04:47:52;40.50;;;16.35;;
74945;SDS011;63509;45.250;38.102;2023-04-15T04:50:18;24.98;;;12.68;;
74945;SDS011;63509;45.250;38.102;2023-04-15T04:52:44;20.13;;;7.90;;
74945;SDS011;63509;45.250;38.102;2023-04-15T04:55:11;29.73;;;10.77;;
74945;SDS011;63509;45.250;38.102;2023-04-15T04:57:37;16.70;;;8.52;;
74945;SDS011;63509;45.250;38.102;2023-04-15T05:00:06;23.00;;;10.65;;
74945;SDS011;63509;45.250;38.102;2023-04-15T05:02:33;36.88;;;15.05;;
74945;SDS011;63509;45.250;38.102;2023-04-15T05:05:00;19.13;;;8.30;;
74945;SDS011;63509;45.250;38.102;2023-04-15T05:07:26;13.30;;;6.28;;
74945;SDS011;63509;45.250;38.102;2023-04-15T05:09:52;21.58;;;7.65;;
74945;SDS011;63509;45.250;38.102;2023-04-15T05:12:18;15.90;;;5.93;;
74945;SDS011;63509;45.250;38.102;2023-04-15T05:14:44;26.10;;;5.15;;
74945;SDS011;63509;45.250;38.102;2023-04-15T05:17:11;11.30;;;4.82;;
74945;SDS011;63509;45.250;38.102;2023-04-15T05:19:37;10.02;;;4.47;;
74945;SDS011;63509;45.250;38.102;2023-04-15T05:22:03;5.75;;;3.42;;
74945;SDS011;63509;45.250;38.102;2023-04-15T05:24:29;10.85;;;4.35;;
74945;SDS011;63509;45.250;38.102;2023-04-15T05:26:55;8.48;;;3.28;;
74945;SDS011;63509;45.250;38.102;2023-04-15T05:29:21;8.20;;;3.53;;
74945;SDS011;63509;45.250;38.102;2023-04-15T05:31:47;9.13;;;3.88;;
74945;SDS011;63509;45.250;38.102;2023-04-15T05:34:13;9.40;;;4.70;;
74945;SDS011;63509;45.250;38.102;2023-04-15T05:36:41;8.07;;;4.97;;
74945;SDS011;63509;45.250;38.102;2023-04-15T05:39:07;9.55;;;3.72;;
74945;SDS011;63509;45.250;38.102;2023-04-15T05:41:33;16.23;;;3.42;;
74945;SDS011;63509;45.250;38.102;2023-04-15T05:44:00;11.00;;;4.03;;
74945;SDS011;63509;45.250;38.102;2023-04-15T05:46:27;8.50;;;3.10;;
74945;SDS011;63509;45.250;38.102;2023-04-15T05:48:52;8.45;;;3.45;;
74945;SDS011;63509;45.250;38.102;2023-04-15T05:51:19;7.55;;;2.97;;
74945;SDS011;63509;45.250;38.102;2023-04-15T05:53:45;9.52;;;3.50;;
74945;SDS011;63509;45.250;38.102;2023-04-15T05:56:11;8.20;;;3.55;;
74945;SDS011;63509;45.250;38.102;2023-04-15T05:58:37;9.77;;;3.40;;
74945;SDS011;63509;45.250;38.102;2023-04-15T06:01:03;12.60;;;3.55;;
74945;SDS011;63509;45.250;38.102;2023-04-15T06:03:29;11.77;;;3.58;;
74945;SDS011;63509;45.250;38.102;2023-04-15T06:05:55;10.30;;;3.65;;
74945;SDS011;63509;45.250;38.102;2023-04-15T06:08:21;14.05;;;4.47;;
74945;SDS011;63509;45.250;38.102;2023-04-15T06:10:47;12.82;;;3.97;;
74945;SDS011;63509;45.250;38.102;2023-04-15T06:13:13;8.10;;;3.40;;
74945;SDS011;63509;45.250;38.102;2023-04-15T06:15:40;7.95;;;3.17;;
74945;SDS011;63509;45.250;38.102;2023-04-15T06:18:06;13.40;;;3.53;;
74945;SDS011;63509;45.250;38.102;2023-04-15T06:20:33;21.13;;;5.70;;
74945;SDS011;63509;45.250;38.102;2023-04-15T06:22:59;19.83;;;4.05;;
74945;SDS011;63509;45.250;38.102;2023-04-15T06:25:25;12.20;;;3.55;;
74945;SDS011;63509;45.250;38.102;2023-04-15T06:27:51;14.63;;;3.78;;
74945;SDS011;63509;45.250;38.102;2023-04-15T06:30:17;8.35;;;3.20;;
74945;SDS011;63509;45.250;38.102;2023-04-15T06:32:43;16.55;;;4.47;;
74945;SDS011;63509;45.250;38.102;2023-04-15T06:35:09;24.50;;;4.70;;
74945;SDS011;63509;45.250;38.102;2023-04-15T06:37:35;10.27;;;4.00;;
74945;SDS011;63509;45.250;38.102;2023-04-15T06:40:02;11.35;;;2.90;;
74945;SDS011;63509;45.250;38.102;2023-04-15T06:42:29;7.15;;;3.38;;
74945;SDS011;63509;45.250;38.102;2023-04-15T06:44:55;9.40;;;3.22;;
74945;SDS011;63509;45.250;38.102;2023-04-15T06:47:21;17.02;;;3.85;;
74945;SDS011;63509;45.250;38.102;2023-04-15T06:49:47;13.35;;;3.53;;
74945;SDS011;63509;45.250;38.102;2023-04-15T06:52:13;12.20;;;4.00;;
74945;SDS011;63509;45.250;38.102;2023-04-15T06:54:41;9.15;;;3.88;;
74945;SDS011;63509;45.250;38.102;2023-04-15T06:57:07;16.48;;;4.85;;
74945;SDS011;63509;45.250;38.102;2023-04-15T06:59:34;12.98;;;3.70;;
74945;SDS011;63509;45.250;38.102;2023-04-15T07:02:00;7.47;;;3.13;;
74945;SDS011;63509;45.250;38.102;2023-04-15T07:04:26;7.68;;;2.95;;
74945;SDS011;63509;45.250;38.102;2023-04-15T07:06:52;6.28;;;2.58;;
74945;SDS011;63509;45.250;38.102;2023-04-15T07:09:22;4.90;;;2.33;;
74945;SDS011;63509;45.250;38.102;2023-04-15T07:11:49;8.02;;;3.20;;
74945;SDS011;63509;45.250;38.102;2023-04-15T07:14:16;7.88;;;3.40;;
74945;SDS011;63509;45.250;38.102;2023-04-15T07:16:43;6.82;;;3.15;;
74945;SDS011;63509;45.250;38.102;2023-04-15T07:19:09;7.25;;;3.28;;
74945;SDS011;63509;45.250;38.102;2023-04-15T07:21:35;4.57;;;2.47;;
74945;SDS011;63509;45.250;38.102;2023-04-15T07:24:01;6.63;;;3.10;;
74945;SDS011;63509;45.250;38.102;2023-04-15T07:26:27;8.63;;;3.97;;
74945;SDS011;63509;45.250;38.102;2023-04-15T07:28:53;8.23;;;3.53;;
74945;SDS011;63509;45.250;38.102;2023-04-15T07:31:19;7.10;;;3.03;;
74945;SDS011;63509;45.250;38.102;2023-04-15T07:33:45;10.65;;;3.58;;
74945;SDS011;63509;45.250;38.102;2023-04-15T07:36:11;17.35;;;5.15;;
74945;SDS011;63509;45.250;38.102;2023-04-15T07:38:38;11.55;;;3.65;;
74945;SDS011;63509;45.250;38.102;2023-04-15T07:41:04;8.82;;;2.90;;
74945;SDS011;63509;45.250;38.102;2023-04-15T07:43:30;5.30;;;2.90;;
74945;SDS011;63509;45.250;38.102;2023-04-15T07:45:56;6.07;;;2.60;;
74945;SDS011;63509;45.250;38.102;2023-04-15T07:48:22;7.93;;;3.92;;
74945;SDS011;63509;45.250;38.102;2023-04-15T07:50:48;10.52;;;2.90;;
74945;SDS011;63509;45.250;38.102;2023-04-15T07:53:14;4.47;;;2.63;;
74945;SDS011;63509;45.250;38.102;2023-04-15T07:55:40;11.30;;;3.47;;
74945;SDS011;63509;45.250;38.102;2023-04-15T07:58:06;8.32;;;3.45;;
74945;SDS011;63509;45.250;38.102;2023-04-15T08:00:32;7.22;;;3.58;;
74945;SDS011;63509;45.250;38.102;2023-04-15T08:02:58;6.93;;;3.60;;
74945;SDS011;63509;45.250;38.102;2023-04-15T08:05:24;9.40;;;3.95;;
74945;SDS011;63509;45.250;38.102;2023-04-15T08:07:51;7.15;;;3.75;;
74945;SDS011;63509;45.250;38.102;2023-04-15T08:10:17;8.00;;;3.30;;
74945;SDS011;63509;45.250;38.102;2023-04-15T08:12:43;8.63;;;3.17;;
74945;SDS011;63509;45.250;38.102;2023-04-15T08:15:14;5.70;;;2.95;;
74945;SDS011;63509;45.250;38.102;2023-04-15T08:17:41;8.07;;;3.15;;
74945;SDS011;63509;45.250;38.102;2023-04-15T08:20:07;7.03;;;3.63;;
74945;SDS011;63509;45.250;38.102;2023-04-15T08:22:34;6.25;;;2.92;;
74945;SDS011;63509;45.250;38.102;2023-04-15T08:25:00;7.65;;;2.85;;
74945;SDS011;63509;45.250;38.102;2023-04-15T08:27:26;6.57;;;3.08;;
74945;SDS011;63509;45.250;38.102;2023-04-15T08:29:51;9.52;;;3.40;;
74945;SDS011;63509;45.250;38.102;2023-04-15T08:32:18;6.07;;;2.72;;
74945;SDS011;63509;45.250;38.102;2023-04-15T08:34:44;7.72;;;3.28;;
74945;SDS011;63509;45.250;38.102;2023-04-15T08:37:10;7.90;;;3.60;;
74945;SDS011;63509;45.250;38.102;2023-04-15T08:39:37;7.00;;;3.17;;
74945;SDS011;63509;45.250;38.102;2023-04-15T08:42:03;5.10;;;2.65;;
74945;SDS011;63509;45.250;38.102;2023-04-15T08:44:36;5.13;;;2.67;;
74945;SDS011;63509;45.250;38.102;2023-04-15T08:47:03;8.35;;;3.25;;
74945;SDS011;63509;45.250;38.102;2023-04-15T08:49:33;7.35;;;2.97;;
74945;SDS011;63509;45.250;38.102;2023-04-15T08:52:03;6.65;;;3.67;;
74945;SDS011;63509;45.250;38.102;2023-04-15T08:54:30;7.50;;;3.28;;
74945;SDS011;63509;45.250;38.102;2023-04-15T08:56:58;5.45;;;2.72;;
74945;SDS011;63509;45.250;38.102;2023-04-15T08:59:24;5.18;;;2.65;;
74945;SDS011;63509;45.250;38.102;2023-04-15T09:01:50;7.72;;;2.80;;
74945;SDS011;63509;45.250;38.102;2023-04-15T09:04:17;9.02;;;2.95;;
74945;SDS011;63509;45.250;38.102;2023-04-15T09:06:43;5.40;;;2.50;;
74945;SDS011;63509;45.250;38.102;2023-04-15T09:09:11;5.45;;;2.50;;
74945;SDS011;63509;45.250;38.102;2023-04-15T09:11:38;7.05;;;2.85;;
74945;SDS011;63509;45.250;38.102;2023-04-15T09:14:04;8.70;;;3.70;;
74945;SDS011;63509;45.250;38.102;2023-04-15T09:16:31;10.45;;;3.10;;
74945;SDS011;63509;45.250;38.102;2023-04-15T09:19:21;4.53;;;2.50;;
74945;SDS011;63509;45.250;38.102;2023-04-15T09:21:49;6.18;;;2.70;;
74945;SDS011;63509;45.250;38.102;2023-04-15T09:24:16;6.40;;;2.97;;
74945;SDS011;63509;45.250;38.102;2023-04-15T09:26:43;5.95;;;2.90;;
74945;SDS011;63509;45.250;38.102;2023-04-15T09:29:10;6.10;;;2.50;;
74945;SDS011;63509;45.250;38.102;2023-04-15T09:31:40;5.07;;;2.60;;
74945;SDS011;63509;45.250;38.102;2023-04-15T09:34:07;6.50;;;2.60;;
74945;SDS011;63509;45.250;38.102;2023-04-15T09:39:49;9.70;;;2.83;;
74945;SDS011;63509;45.250;38.102;2023-04-15T09:42:16;12.55;;;3.92;;
74945;SDS011;63509;45.250;38.102;2023-04-15T09:44:49;7.07;;;3.30;;
74945;SDS011;63509;45.250;38.102;2023-04-15T09:47:26;7.60;;;2.83;;
74945;SDS011;63509;45.250;38.102;2023-04-15T09:49:56;9.10;;;3.20;;
74945;SDS011;63509;45.250;38.102;2023-04-15T09:52:24;10.98;;;3.13;;
74945;SDS011;63509;45.250;38.102;2023-04-15T09:54:52;12.93;;;3.30;;
74945;SDS011;63509;45.250;38.102;2023-04-15T09:57:21;6.38;;;2.65;;
74945;SDS011;63509;45.250;38.102;2023-04-15T09:59:48;10.63;;;4.00;;
74945;SDS011;63509;45.250;38.102;2023-04-15T10:02:15;13.63;;;3.97;;
74945;SDS011;63509;45.250;38.102;2023-04-15T10:04:43;11.65;;;4.72;;
74945;SDS011;63509;45.250;38.102;2023-04-15T10:07:10;7.05;;;3.58;;
74945;SDS011;63509;45.250;38.102;2023-04-15T10:09:37;5.82;;;2.95;;
74945;SDS011;63509;45.250;38.102;2023-04-15T10:12:04;6.85;;;3.15;;
74945;SDS011;63509;45.250;38.102;2023-04-15T10:14:31;10.65;;;2.97;;
74945;SDS011;63509;45.250;38.102;2023-04-15T10:17:02;6.15;;;2.65;;
74945;SDS011;63509;45.250;38.102;2023-04-15T10:19:30;5.75;;;2.90;;
74945;SDS011;63509;45.250;38.102;2023-04-15T10:22:00;7.65;;;2.85;;
74945;SDS011;63509;45.250;38.102;2023-04-15T10:24:29;7.13;;;3.38;;
74945;SDS011;63509;45.250;38.102;2023-04-15T10:26:57;5.15;;;3.13;;
74945;SDS011;63509;45.250;38.102;2023-04-15T10:29:24;12.10;;;2.80;;
74945;SDS011;63509;45.250;38.102;2023-04-15T10:31:58;6.03;;;2.80;;
74945;SDS011;63509;45.250;38.102;2023-04-15T10:34:24;4.85;;;2.67;;
74945;SDS011;63509;45.250;38.102;2023-04-15T10:36:57;7.40;;;2.67;;
74945;SDS011;63509;45.250;38.102;2023-04-15T10:42:08;6.07;;;3.00;;
74945;SDS011;63509;45.250;38.102;2023-04-15T10:44:36;10.68;;;3.30;;
74945;SDS011;63509;45.250;38.102;2023-04-15T10:47:08;8.15;;;2.63;;
74945;SDS011;63509;45.250;38.102;2023-04-15T10:49:44;8.40;;;3.13;;
74945;SDS011;63509;45.250;38.102;2023-04-15T10:52:12;6.57;;;2.78;;
74945;SDS011;63509;45.250;38.102;2023-04-15T10:54:41;5.53;;;2.42;;
74945;SDS011;63509;45.250;38.102;2023-04-15T10:57:08;8.02;;;2.83;;
74945;SDS011;63509;45.250;38.102;2023-04-15T10:59:59;5.07;;;2.90;;
74945;SDS011;63509;45.250;38.102;2023-04-15T11:05:09;15.98;;;3.90;;
74945;SDS011;63509;45.250;38.102;2023-04-15T11:07:37;8.02;;;3.50;;
74945;SDS011;63509;45.250;38.102;2023-04-15T11:12:51;13.88;;;4.00;;
74945;SDS011;63509;45.250;38.102;2023-04-15T11:15:34;11.23;;;3.67;;
74945;SDS011;63509;45.250;38.102;2023-04-15T11:18:13;9.40;;;5.47;;
74945;SDS011;63509;45.250;38.102;2023-04-15T11:20:50;15.90;;;4.45;;
74945;SDS011;63509;45.250;38.102;2023-04-15T11:23:29;9.27;;;3.75;;
74945;SDS011;63509;45.250;38.102;2023-04-15T11:25:57;9.15;;;3.20;;
74945;SDS011;63509;45.250;38.102;2023-04-15T11:28:25;18.10;;;4.53;;
74945;SDS011;63509;45.250;38.102;2023-04-15T11:30:55;20.00;;;4.65;;
74945;SDS011;63509;45.250;38.102;2023-04-15T11:33:22;10.52;;;4.60;;
74945;SDS011;63509;45.250;38.102;2023-04-15T11:35:49;14.07;;;3.60;;
74945;SDS011;63509;45.250;38.102;2023-04-15T11:38:18;8.65;;;3.60;;
74945;SDS011;63509;45.250;38.102;2023-04-15T11:40:44;11.02;;;4.68;;
74945;SDS011;63509;45.250;38.102;2023-04-15T11:43:11;12.43;;;4.20;;
74945;SDS011;63509;45.250;38.102;2023-04-15T11:48:22;16.67;;;4.72;;
74945;SDS011;63509;45.250;38.102;2023-04-15T11:50:56;12.75;;;3.08;;
74945;SDS011;63509;45.250;38.102;2023-04-15T11:53:35;12.40;;;4.60;;
74945;SDS011;63509;45.250;38.102;2023-04-15T11:56:01;10.85;;;4.43;;
74945;SDS011;63509;45.250;38.102;2023-04-15T11:58:28;21.15;;;4.30;;
74945;SDS011;63509;45.250;38.102;2023-04-15T12:00:56;19.48;;;4.57;;
74945;SDS011;63509;45.250;38.102;2023-04-15T12:03:25;16.13;;;4.32;;
74945;SDS011;63509;45.250;38.102;2023-04-15T12:06:09;11.68;;;4.85;;
74945;SDS011;63509;45.250;38.102;2023-04-15T12:12:05;11.07;;;3.92;;
74945;SDS011;63509;45.250;38.102;2023-04-15T12:16:45;11.00;;;3.97;;
74945;SDS011;63509;45.250;38.102;2023-04-15T12:19:14;14.95;;;4.65;;
74945;SDS011;63509;45.250;38.102;2023-04-15T12:21:45;9.73;;;4.55;;
74945;SDS011;63509;45.250;38.102;2023-04-15T12:24:14;9.50;;;4.05;;
74945;SDS011;63509;45.250;38.102;2023-04-15T12:26:45;28.35;;;5.45;;
74945;SDS011;63509;45.250;38.102;2023-04-15T12:29:15;12.93;;;4.63;;
74945;SDS011;63509;45.250;38.102;2023-04-15T12:31:48;15.27;;;4.57;;
74945;SDS011;63509;45.250;38.102;2023-04-15T12:34:17;16.45;;;3.75;;
74945;SDS011;63509;45.250;38.102;2023-04-15T12:36:51;7.63;;;4.22;;
74945;SDS011;63509;45.250;38.102;2023-04-15T12:39:20;7.68;;;3.80;;
74945;SDS011;63509;45.250;38.102;2023-04-15T12:41:47;14.10;;;5.07;;
74945;SDS011;63509;45.250;38.102;2023-04-15T12:44:13;10.95;;;4.50;;
74945;SDS011;63509;45.250;38.102;2023-04-15T12:46:39;11.35;;;3.72;;
74945;SDS011;63509;45.250;38.102;2023-04-15T12:49:06;10.95;;;4.03;;
74945;SDS011;63509;45.250;38.102;2023-04-15T12:51:32;13.38;;;4.60;;
74945;SDS011;63509;45.250;38.102;2023-04-15T12:53:58;22.80;;;5.03;;
74945;SDS011;63509;45.250;38.102;2023-04-15T12:56:24;9.77;;;4.55;;
74945;SDS011;63509;45.250;38.102;2023-04-15T12:58:51;19.70;;;5.38;;
74945;SDS011;63509;45.250;38.102;2023-04-15T13:01:17;12.85;;;4.95;;
74945;SDS011;63509;45.250;38.102;2023-04-15T13:03:44;12.75;;;5.22;;
74945;SDS011;63509;45.250;38.102;2023-04-15T13:06:10;10.02;;;4.85;;
74945;SDS011;63509;45.250;38.102;2023-04-15T13:08:36;8.52;;;4.72;;
74945;SDS011;63509;45.250;38.102;2023-04-15T13:11:02;16.75;;;5.97;;
74945;SDS011;63509;45.250;38.102;2023-04-15T13:13:28;9.60;;;5.03;;
74945;SDS011;63509;45.250;38.102;2023-04-15T13:15:56;10.40;;;4.72;;
74945;SDS011;63509;45.250;38.102;2023-04-15T13:18:22;11.30;;;5.10;;
74945;SDS011;63509;45.250;38.102;2023-04-15T13:20:49;15.40;;;5.43;;
74945;SDS011;63509;45.250;38.102;2023-04-15T13:23:15;18.23;;;5.47;;
74945;SDS011;63509;45.250;38.102;2023-04-15T13:25:42;13.02;;;6.50;;
74945;SDS011;63509;45.250;38.102;2023-04-15T13:28:10;12.00;;;5.07;;
74945;SDS011;63509;45.250;38.102;2023-04-15T13:30:37;24.42;;;5.90;;
74945;SDS011;63509;45.250;38.102;2023-04-15T13:33:03;15.20;;;5.15;;
74945;SDS011;63509;45.250;38.102;2023-04-15T13:35:31;9.50;;;5.38;;
74945;SDS011;63509;45.250;38.102;2023-04-15T13:37:57;13.15;;;5.70;;
74945;SDS011;63509;45.250;38.102;2023-04-15T13:40:23;13.50;;;4.40;;
74945;SDS011;63509;45.250;38.102;2023-04-15T13:42:49;12.20;;;5.20;;
74945;SDS011;63509;45.250;38.102;2023-04-15T13:45:17;11.30;;;5.50;;
74945;SDS011;63509;45.250;38.102;2023-04-15T13:47:43;12.80;;;4.85;;
74945;SDS011;63509;45.250;38.102;2023-04-15T13:50:09;15.30;;;5.63;;
74945;SDS011;63509;45.250;38.102;2023-04-15T13:52:36;9.35;;;4.55;;
74945;SDS011;63509;45.250;38.102;2023-04-15T13:55:02;20.60;;;5.68;;
74945;SDS011;63509;45.250;38.102;2023-04-15T13:57:28;14.93;;;4.97;;
74945;SDS011;63509;45.250;38.102;2023-04-15T13:59:56;11.65;;;5.00;;
74945;SDS011;63509;45.250;38.102;2023-04-15T14:02:22;7.93;;;4.65;;
74945;SDS011;63509;45.250;38.102;2023-04-15T14:04:48;12.93;;;4.78;;
74945;SDS011;63509;45.250;38.102;2023-04-15T14:07:15;13.80;;;6.75;;
74945;SDS011;63509;45.250;38.102;2023-04-15T14:09:42;19.77;;;5.13;;
74945;SDS011;63509;45.250;38.102;2023-04-15T14:12:09;9.77;;;5.55;;
74945;SDS011;63509;45.250;38.102;2023-04-15T14:14:35;10.52;;;5.70;;
74945;SDS011;63509;45.250;38.102;2023-04-15T14:17:02;14.32;;;5.40;;
74945;SDS011;63509;45.250;38.102;2023-04-15T14:19:30;16.30;;;5.65;;
74945;SDS011;63509;45.250;38.102;2023-04-15T14:21:56;15.65;;;6.20;;
74945;SDS011;63509;45.250;38.102;2023-04-15T14:24:22;14.07;;;5.78;;
74945;SDS011;63509;45.250;38.102;2023-04-15T14:26:48;16.08;;;5.50;;
74945;SDS011;63509;45.250;38.102;2023-04-15T14:29:14;10.40;;;5.47;;
74945;SDS011;63509;45.250;38.102;2023-04-15T14:31:41;9.70;;;4.85;;
74945;SDS011;63509;45.250;38.102;2023-04-15T14:34:09;12.55;;;5.30;;
74945;SDS011;63509;45.250;38.102;2023-04-15T14:36:36;10.32;;;5.30;;
74945;SDS011;63509;45.250;38.102;2023-04-15T14:39:02;11.25;;;5.78;;
74945;SDS011;63509;45.250;38.102;2023-04-15T14:41:28;12.45;;;5.95;;
74945;SDS011;63509;45.250;38.102;2023-04-15T14:43:55;24.27;;;6.88;;
74945;SDS011;63509;45.250;38.102;2023-04-15T14:46:21;22.95;;;6.40;;
74945;SDS011;63509;45.250;38.102;2023-04-15T14:48:48;9.35;;;5.80;;